To NAV CANADA Home Page Login to a new session Search on AWWS site Feedback and Comments Disclaimer Vers la page française équivalente Tips FAQ What's new on the site To the Forecasts and Observations / NOTAM section To "File a Flight Plan" website Publications and other links Update of the User's profile FIC Telephone Numbers My Weather Data Folder Route Weather Data Regional Weather Data Local Weather Data To the Forecasts and Observations / NOTAM section
Request Generated 10/18/2017 at 03:52:25 UTC . Weather information available at that time is displayed.

METAR/TAF

LA RONGE (BARBER FIELD)/SK    

SPECI CYVC 180344Z 08011G16KT 15SM OVC100 09/05 A2887 RMK AC8 PRESFR
SLP790 DENSITY ALT 2100FT=
METAR CYVC 180300Z 08011KT 15SM -RA OVC070 08/06 A2892 RMK AC8 PRESFR
SLP806 DENSITY ALT 2000FT=
SPECI CYVC 180217Z 10009KT 15SM -RA OVC071 10/05 A2899 RMK AC8 PRESFR
SLP830 DENSITY ALT 2000FT=
METAR CYVC 180200Z 10007KT 15SM OVC070 11/04 A2901 RMK AC8 PRESFR
SLP837 DENSITY ALT 2100FT=
METAR CYVC 180100Z 11009G18KT 15SM OVC075 12/04 A2905 RMK AC8 PRESFR
SLP850 DENSITY ALT 2200FT=

TAF CYVC 180038Z 1801/1813 11012G22KT P6SM OVC070 TEMPO 1801/1806
P6SM -RA
FM180600 29010G20KT P6SM -RA OVC040 TEMPO 1806/1813 4SM -RA BR
BECMG 1807/1809 28025G40KT
RMK NXT FCST BY 180700Z=
Your time UTC time
Weather data provided by Environment Canada and NAV CANADA